AirNav   TITAN Aviation Fuels
 
 499 users online  

2I3 Rough River State Park Airport
Falls of Rough, Kentucky, USA

GOING TO FALLS OF ROUGH?


FAA INFORMATION EFFECTIVE 11 AUGUST 2022

Location

FAA Identifier: 2I3
Lat/Long: 37-36-35.3000N 086-30-25.8000W
37-36.588333N 086-30.430000W
37.6098056,-86.5071667
(estimated)
Elevation: 577 ft. / 175.9 m (surveyed)
Variation: 01W (1985)
From city: 3 miles NE of FALLS-OF-ROUGH, KY
Time zone: UTC -5 (UTC -6 during Standard Time)
Zip code: 40119

Airport Operations

Airport use: Open to the public
Activation date: 05/1963
Control tower: no
ARTCC: INDIANAPOLIS CENTER
FSS: LOUISVILLE FLIGHT SERVICE STATION
NOTAMs facility: LOU (NOTAM-D service available)
Attendance: UNATNDD
Wind indicator: lighted
Segmented circle: yes
Lights: ACTVT MIRL RY 2/20; REIL RY 2 & 20 - CTAF. PAPI RY 2 & 20 OPER CONTINUOUSLY.
Beacon: white-green (lighted land airport)
Operates sunset to sunrise.

Airport Communications

CTAF/UNICOM: 122.8
WX AWOS-3PT at JQD (19 nm SW): 132.1 (270-298-7936)

Nearby radio navigation aids

VOR radial/distance  VOR name  Freq  Var
MYSr217/(21.1)MYSTIC VOR108.2001W
FTKr236/31.0FORT KNOX VOR/DME109.6001W
OWBr108/32.3OWENSBORO VOR/DME108.6004W
EWOr267/39.5NEW HOPE VOR/DME110.8001E

 
NDB name  Hdg/Dist  Freq  Var  ID
GODMAN233/32.739603WGOI --. --- ..

Airport Services

Parking: tiedowns
Airframe service: NONE
Powerplant service: NONE
Bottled oxygen: NONE
Bulk oxygen: NONE

Runway Information

Runway 2/20

Dimensions: 3200 x 75 ft. / 975 x 23 m
Surface: asphalt, in good condition
Weight bearing capacity: 
Single wheel: 8.0
Runway edge lights: medium intensity
RUNWAY 2  RUNWAY 20
Latitude: 37-36.336833N37-36.841000N
Longitude: 086-30.527167W086-30.332667W
Traffic pattern: leftleft
Markings: basic, in good conditionbasic, in good condition
Visual slope indicator: 2-light PAPI on left (4.00 degrees glide path)4-light PAPI on left (5.00 degrees glide path)
Runway end identifier lights: yesyes
Obstructions: none44 ft. trees, 878 ft. from runway, 144 ft. left of centerline, 15:1 slope to clear

Airport Ownership and Management from official FAA records

Ownership: Publicly-owned
Owner: KY DEPT OF PARKS
2 HUDSON HOLLOW UNIT 1
FRANKFORT, KY 40601
Phone (502) 892-3367
Manager: MICHAEL RICKS, PARK MANAGER
450 LODGE ROAD
FALLS OF ROUGH, KY 40119
Phone 270-257-2311

Airport Operational Statistics

Aircraft operations: avg 25/day *
78% transient general aviation
13% local general aviation
7% military
2% air taxi
* for 12-month period ending 04 December 2019

Additional Remarks

TRANSPORTATION TO PARK LODGE AVAIL 270-257-2311.
FOR CD CTC INDIANAPOLIS ARTCC AT 317-247-2411.

Instrument Procedures

There are no published instrument procedures at 2I3.

Some nearby airports with instrument procedures:

I93 - Breckinridge County Airport (11 nm N)
M20 - Leitchfield-Grayson County Airport (17 nm SE)
KJQD - Ohio County Airport (19 nm SW)
KTEL - Perry County Municipal Airport (26 nm N)
KY8 - Hancock County Airport/Ron Lewis Field (26 nm NW)
 
Loc | Ops | Rwys | IFR | FBO | Links
Com | Nav | Svcs | Stats | Notes
Area around 2I3 (Rough River State Park Airport)
 
Road maps at: MapQuest Bing Google
 
Aerial photo
WARNING: Photo may not be current or correct
Aerial photo of 2I3 (Rough River State Park Airport)
Taken in December 2006

Do you have a better or more recent aerial photo of Rough River State Park Airport that you would like to share? If so, please send us your photo.

 
Sectional chart

 
Airport distance calculator
Flying to Rough River State Park Airport? Find the distance to fly.

From to 2I3

Sunrise and sunset
Times for 14-Aug-2022
 Local
(UTC-5)
 Zulu
(UTC)
Morning civil twilight05:3410:34
Sunrise06:0211:02
Sunset19:3900:39
Evening civil twilight20:0701:07

Current date and time
Zulu (UTC)  14-Aug-2022 06:23:55
Local (UTC-5)  14-Aug-2022 01:23:55
 
METAR
KKY8 
26nm NW 
140555Z AUTO 00000KT 10SM FEW026 FEW055 FEW075 19/19 A3002 RMK A01
KFTK 
30nm NE 
140556Z AUTO 00000KT 10SM BKN120 OVC150 18/18 A3002 RMK AO2 SLP163 T01820180 10230 20166 55007 $
KEKX 
31nm E 
140555Z AUTO 00000KT 10SM CLR 18/17 A3005 RMK AO2 60001 T01790170 10240 20167 402790145
KOWB 
32nm W 
140556Z AUTO 19003KT 10SM CLR 19/18 A3003 RMK AO2 SLP166 T01940183 10250 20189 402830156 58007
KM21 
39nm SW 
140555Z AUTO 00000KT 10SM CLR 17/17 A3004 RMK AO2 T01710166 10271 20170 402880138
KBWG 
39nm S 
140553Z AUTO 00000KT 10SM CLR 19/17 A3005 RMK AO2 SLP169 T01890172 10272 20183 402940150 58001
KGLW 
44nm SE 
140555Z AUTO 00000KT 7SM CLR 17/17 A3005 RMK AO2 T01670167 10261 20163
KHNB 
44nm NW 
140556Z AUTO 16003KT 10SM CLR 20/18 A3002 RMK AO2 SLP160 T02000183 10250 20183 58012
K2I0 
45nm W 
140555Z AUTO 00000KT 10SM CLR 18/17 A3004 RMK AO2 T01820170 10265 20179 402910145
KI19 
46nm NW 
140555Z AUTO 12005KT 10SM SCT090 BKN110 20/17 A3007 RMK AO2 T01990166 10225 20198 402560125 PWINO
TAF
KOWB 
32nm W 
140520Z 1406/1506 VRB03KT P6SM BKN150 FM141500 22011G18KT P6SM FEW060 SCT200 FM142100 25010KT P6SM FEW045 SCT200 FM150000 31006KT P6SM SCT200
NOTAMs
Click for the latest NOTAMs
NOTAMs are issued by the DoD/FAA and will open in a separate window not controlled by AirNav.

 

 
 

Would you like to see your business listed on this page?

 If your business provides an interesting product or service to pilots, flight crews, aircraft, or users of the Rough River State Park Airport, you should consider listing it here.  To start the listing process, click on the button below
 
Add a business
 

Other Pages about Rough River State Park Airport

Update a link
 
Copyright © AirNav, LLC. All rights reserved. Privacy Policy  Contact